N653J URSS-URWW
Flight info
| Callsign | N653J |
|---|---|
| Flight time | 1h 4m |
| Altitude | 38000 |
| Route | ADNET W79 NZ/K0861F390 A961 KULED/K0861F400 G901 GAMTU |
| Aircraft | CL60/M-SADE3FGHIJ3J4J7P2RWXY/HB1D1 |
Departure
| Time | 2026-05-05 15:43 |
|---|---|
| Airport | Sochi International Airport (URSS) |
Arrival
| Time | 2026-05-05 16:47 |
|---|---|
| Airport | Volgograd International Airport (URWW) |
| Time | Latitude | Longitude | Altitude | Speed | Heading |
|---|---|---|---|---|---|
| 2026-05-05 15:27 | 43.44238 | 39.94375 | 48 ft | 0 kts | 154° |
| 2026-05-05 15:35 | 43.44248 | 39.94368 | 48 ft | 2 kts | 154° |
| 2026-05-05 15:35 | 43.44262 | 39.94359 | 48 ft | 2 kts | 154° |
| 2026-05-05 15:36 | 43.44270 | 39.94353 | 47 ft | 2 kts | 143° |
| 2026-05-05 15:36 | 43.44279 | 39.94336 | 47 ft | 2 kts | 106° |
| 2026-05-05 15:36 | 43.44278 | 39.94314 | 47 ft | 1 kts | 67° |
| 2026-05-05 15:36 | 43.44276 | 39.94309 | 47 ft | 0 kts | 64° |
| 2026-05-05 15:38 | 43.44283 | 39.94327 | 47 ft | 5 kts | 65° |
| 2026-05-05 15:38 | 43.44303 | 39.94384 | 48 ft | 7 kts | 61° |
| 2026-05-05 15:39 | 43.44328 | 39.94459 | 50 ft | 9 kts | 66° |
| 2026-05-05 15:39 | 43.44359 | 39.94551 | 51 ft | 11 kts | 64° |
| 2026-05-05 15:39 | 43.44396 | 39.94659 | 54 ft | 13 kts | 65° |
| 2026-05-05 15:39 | 43.44441 | 39.94789 | 54 ft | 16 kts | 64° |
| 2026-05-05 15:40 | 43.44492 | 39.94942 | 56 ft | 15 kts | 65° |
| 2026-05-05 15:40 | 43.44528 | 39.95023 | 57 ft | 10 kts | 35° |
| 2026-05-05 15:40 | 43.44605 | 39.95080 | 57 ft | 13 kts | 26° |
| 2026-05-05 15:40 | 43.44686 | 39.95093 | 59 ft | 5 kts | 308° |
| 2026-05-05 15:41 | 43.44693 | 39.95076 | 58 ft | 0 kts | 291° |
| 2026-05-05 15:41 | 43.44696 | 39.95036 | 58 ft | 8 kts | 270° |
| 2026-05-05 15:41 | 43.44696 | 39.94946 | 56 ft | 12 kts | 269° |
| 2026-05-05 15:42 | 43.44698 | 39.94815 | 54 ft | 16 kts | 272° |
| 2026-05-05 15:42 | 43.44689 | 39.94750 | 54 ft | 0 kts | 244° |
| 2026-05-05 15:42 | 43.44665 | 39.94681 | 54 ft | 34 kts | 245° |
| 2026-05-05 15:42 | 43.44430 | 39.93993 | 46 ft | 121 kts | 245° |
| 2026-05-05 15:43 | 43.44010 | 39.92758 | 383 ft | 156 kts | 246° |
| 2026-05-05 15:43 | 43.43504 | 39.91304 | 886 ft | 184 kts | 246° |
| 2026-05-05 15:43 | 43.43082 | 39.89659 | 1381 ft | 182 kts | 261° |
| 2026-05-05 15:43 | 43.42969 | 39.87898 | 1560 ft | 187 kts | 275° |
| 2026-05-05 15:44 | 43.43217 | 39.86178 | 1570 ft | 181 kts | 292° |
| 2026-05-05 15:44 | 43.43806 | 39.84664 | 1561 ft | 178 kts | 307° |
| 2026-05-05 15:44 | 43.44631 | 39.83163 | 1650 ft | 221 kts | 308° |
| 2026-05-05 15:44 | 43.45623 | 39.81369 | 2633 ft | 250 kts | 308° |
| 2026-05-05 15:45 | 43.46670 | 39.79467 | 4086 ft | 260 kts | 308° |
| 2026-05-05 15:45 | 43.47753 | 39.77500 | 5551 ft | 268 kts | 308° |
| 2026-05-05 15:45 | 43.48871 | 39.75467 | 7010 ft | 275 kts | 308° |
| 2026-05-05 15:45 | 43.50016 | 39.73383 | 8403 ft | 283 kts | 308° |
| 2026-05-05 15:46 | 43.51199 | 39.71230 | 9768 ft | 291 kts | 308° |
| 2026-05-05 15:46 | 43.52424 | 39.69001 | 10953 ft | 303 kts | 308° |
| 2026-05-05 15:46 | 43.53724 | 39.66631 | 11989 ft | 321 kts | 307° |
| 2026-05-05 15:46 | 43.55080 | 39.64160 | 13110 ft | 332 kts | 307° |
| 2026-05-05 15:47 | 43.56474 | 39.61618 | 14255 ft | 340 kts | 307° |
| 2026-05-05 15:47 | 43.57421 | 39.59892 | 15029 ft | 344 kts | 307° |
| 2026-05-05 15:47 | 43.59348 | 39.56374 | 16514 ft | 352 kts | 307° |
| 2026-05-05 15:47 | 43.60949 | 39.53827 | 17554 ft | 358 kts | 318° |
| 2026-05-05 15:48 | 43.63021 | 39.51944 | 18498 ft | 364 kts | 336° |
| 2026-05-05 15:48 | 43.65450 | 39.51032 | 19471 ft | 367 kts | 356° |
| 2026-05-05 15:48 | 43.67975 | 39.51316 | 20390 ft | 369 kts | 17° |
| 2026-05-05 15:48 | 43.70422 | 39.52422 | 21292 ft | 374 kts | 21° |
| 2026-05-05 15:49 | 43.72891 | 39.53593 | 22210 ft | 379 kts | 21° |
| 2026-05-05 15:49 | 43.75404 | 39.54776 | 23083 ft | 384 kts | 21° |
| 2026-05-05 15:49 | 43.77934 | 39.55969 | 23921 ft | 389 kts | 21° |
| 2026-05-05 15:49 | 43.80500 | 39.57179 | 24759 ft | 393 kts | 20° |
| 2026-05-05 15:50 | 43.83089 | 39.58401 | 25577 ft | 397 kts | 21° |
| 2026-05-05 15:50 | 43.85704 | 39.59636 | 26320 ft | 401 kts | 21° |
| 2026-05-05 15:50 | 43.88347 | 39.60885 | 27025 ft | 405 kts | 21° |
| 2026-05-05 15:50 | 43.91010 | 39.62144 | 27705 ft | 408 kts | 21° |
| 2026-05-05 15:51 | 43.93701 | 39.63416 | 28338 ft | 412 kts | 21° |
| 2026-05-05 15:51 | 43.96419 | 39.64700 | 28957 ft | 415 kts | 21° |
| 2026-05-05 15:51 | 43.99156 | 39.65993 | 29564 ft | 418 kts | 21° |
| 2026-05-05 15:51 | 44.01916 | 39.67299 | 30120 ft | 421 kts | 21° |
| 2026-05-05 15:52 | 44.04692 | 39.68612 | 30666 ft | 424 kts | 21° |
| 2026-05-05 15:52 | 44.07487 | 39.69937 | 31141 ft | 426 kts | 21° |
| 2026-05-05 15:52 | 44.10293 | 39.71268 | 31479 ft | 429 kts | 21° |
| 2026-05-05 15:52 | 44.13118 | 39.72609 | 31764 ft | 432 kts | 21° |
| 2026-05-05 15:53 | 44.15967 | 39.73963 | 32020 ft | 436 kts | 21° |
| 2026-05-05 15:53 | 44.18843 | 39.75329 | 32294 ft | 439 kts | 21° |
| 2026-05-05 15:53 | 44.21733 | 39.76704 | 32555 ft | 442 kts | 21° |
| 2026-05-05 15:53 | 44.24647 | 39.78093 | 32815 ft | 445 kts | 21° |
| 2026-05-05 15:54 | 44.27584 | 39.79499 | 33062 ft | 448 kts | 21° |
| 2026-05-05 15:54 | 44.30529 | 39.80911 | 33309 ft | 450 kts | 21° |
| 2026-05-05 15:54 | 44.33528 | 39.82176 | 33578 ft | 453 kts | 16° |
| 2026-05-05 15:54 | 44.36630 | 39.82943 | 33882 ft | 455 kts | 8° |
| 2026-05-05 15:55 | 44.39789 | 39.83162 | 34253 ft | 456 kts | 1° |
| 2026-05-05 15:55 | 44.42952 | 39.82832 | 34628 ft | 457 kts | 354° |
| 2026-05-05 15:55 | 44.46089 | 39.82226 | 35015 ft | 456 kts | 354° |
| 2026-05-05 15:55 | 44.49231 | 39.81612 | 35370 ft | 454 kts | 354° |
| 2026-05-05 15:56 | 44.52351 | 39.81004 | 35730 ft | 453 kts | 354° |
| 2026-05-05 15:56 | 44.55471 | 39.80396 | 36050 ft | 452 kts | 354° |
| 2026-05-05 15:56 | 44.58578 | 39.79789 | 36338 ft | 452 kts | 354° |
| 2026-05-05 15:56 | 44.61688 | 39.79181 | 36596 ft | 453 kts | 354° |
| 2026-05-05 15:57 | 44.64801 | 39.78573 | 36839 ft | 453 kts | 353° |
| 2026-05-05 15:57 | 44.67920 | 39.77962 | 37068 ft | 454 kts | 353° |
| 2026-05-05 15:57 | 44.71038 | 39.77351 | 37304 ft | 454 kts | 353° |
| 2026-05-05 15:57 | 44.74162 | 39.76738 | 37531 ft | 455 kts | 353° |
| 2026-05-05 15:58 | 44.77282 | 39.76126 | 37766 ft | 454 kts | 353° |
| 2026-05-05 15:58 | 44.80408 | 39.75511 | 37955 ft | 455 kts | 353° |
| 2026-05-05 15:58 | 44.83545 | 39.74894 | 37987 ft | 459 kts | 353° |
| 2026-05-05 15:59 | 44.89864 | 39.73648 | 37986 ft | 460 kts | 353° |
| 2026-05-05 15:59 | 44.96168 | 39.72403 | 37985 ft | 457 kts | 353° |
| 2026-05-05 16:00 | 45.02447 | 39.71160 | 37999 ft | 456 kts | 353° |
| 2026-05-05 16:00 | 45.08730 | 39.70786 | 37991 ft | 452 kts | 7° |
| 2026-05-05 16:01 | 45.14815 | 39.72676 | 37995 ft | 448 kts | 22° |
| 2026-05-05 16:01 | 45.20292 | 39.76697 | 37998 ft | 444 kts | 37° |
| 2026-05-05 16:02 | 45.24802 | 39.82532 | 37999 ft | 439 kts | 52° |
| 2026-05-05 16:02 | 45.28056 | 39.89742 | 38001 ft | 435 kts | 66° |
| 2026-05-05 16:03 | 45.30069 | 39.97778 | 37990 ft | 434 kts | 73° |
| 2026-05-05 16:03 | 45.31929 | 40.05928 | 38099 ft | 438 kts | 73° |
| 2026-05-05 16:03 | 45.32865 | 40.10034 | 38261 ft | 439 kts | 73° |
| 2026-05-05 16:04 | 45.33799 | 40.14145 | 38476 ft | 438 kts | 73° |
| 2026-05-05 16:04 | 45.34730 | 40.18245 | 38690 ft | 438 kts | 73° |
| 2026-05-05 16:04 | 45.35677 | 40.22341 | 38916 ft | 438 kts | 72° |
| 2026-05-05 16:05 | 45.37882 | 40.30457 | 38994 ft | 447 kts | 70° |
| 2026-05-05 16:05 | 45.40148 | 40.38733 | 38995 ft | 454 kts | 70° |
| 2026-05-05 16:06 | 45.42465 | 40.47149 | 38995 ft | 461 kts | 68° |
| 2026-05-05 16:06 | 45.45229 | 40.54264 | 38997 ft | 469 kts | 56° |
| 2026-05-05 16:07 | 45.47162 | 40.57758 | 38931 ft | 475 kts | 49° |
| 2026-05-05 16:07 | 45.51665 | 40.63519 | 38978 ft | 482 kts | 38° |
| 2026-05-05 16:08 | 45.57081 | 40.69200 | 38997 ft | 487 kts | 38° |
| 2026-05-05 16:08 | 45.62526 | 40.74928 | 39001 ft | 488 kts | 38° |
| 2026-05-05 16:09 | 45.67970 | 40.80670 | 39001 ft | 487 kts | 38° |
| 2026-05-05 16:09 | 45.73393 | 40.86406 | 39008 ft | 486 kts | 38° |
| 2026-05-05 16:10 | 45.78803 | 40.92144 | 39007 ft | 485 kts | 38° |
| 2026-05-05 16:10 | 45.84209 | 40.97893 | 39001 ft | 486 kts | 38° |
| 2026-05-05 16:11 | 45.89628 | 41.03670 | 39011 ft | 485 kts | 38° |
| 2026-05-05 16:12 | 46.00390 | 41.15187 | 39024 ft | 483 kts | 38° |
| 2026-05-05 16:13 | 46.13813 | 41.29635 | 39024 ft | 484 kts | 38° |
| 2026-05-05 16:13 | 46.19180 | 41.35436 | 39019 ft | 484 kts | 38° |
| 2026-05-05 16:14 | 46.29910 | 41.47081 | 39013 ft | 484 kts | 38° |
| 2026-05-05 16:15 | 46.40631 | 41.58773 | 39012 ft | 484 kts | 38° |
| 2026-05-05 16:16 | 46.51326 | 41.70496 | 39004 ft | 483 kts | 39° |
| 2026-05-05 16:17 | 46.59336 | 41.79314 | 39012 ft | 483 kts | 39° |
| 2026-05-05 16:18 | 46.67340 | 41.88160 | 39012 ft | 483 kts | 39° |
| 2026-05-05 16:19 | 46.75335 | 41.97030 | 39013 ft | 483 kts | 39° |
| 2026-05-05 16:19 | 46.83331 | 42.05898 | 39001 ft | 482 kts | 39° |
| 2026-05-05 16:20 | 46.93979 | 42.17731 | 39008 ft | 482 kts | 39° |
| 2026-05-05 16:22 | 47.07279 | 42.32613 | 39007 ft | 483 kts | 39° |
| 2026-05-05 16:23 | 47.17915 | 42.44600 | 38986 ft | 482 kts | 39° |
| 2026-05-05 16:23 | 47.25844 | 42.53578 | 38951 ft | 482 kts | 39° |
| 2026-05-05 16:24 | 47.28480 | 42.56570 | 38485 ft | 478 kts | 39° |
| 2026-05-05 16:24 | 47.31083 | 42.59529 | 37931 ft | 473 kts | 39° |
| 2026-05-05 16:24 | 47.36223 | 42.65383 | 36683 ft | 464 kts | 39° |
| 2026-05-05 16:25 | 47.38748 | 42.68265 | 36108 ft | 459 kts | 39° |
| 2026-05-05 16:25 | 47.43741 | 42.73973 | 34925 ft | 457 kts | 40° |
| 2026-05-05 16:25 | 47.46234 | 42.76832 | 34158 ft | 455 kts | 40° |
| 2026-05-05 16:26 | 47.51103 | 42.82419 | 33061 ft | 437 kts | 40° |
| 2026-05-05 16:26 | 47.55795 | 42.87817 | 31954 ft | 423 kts | 40° |
| 2026-05-05 16:27 | 47.58100 | 42.90474 | 31402 ft | 422 kts | 40° |
| 2026-05-05 16:27 | 47.60408 | 42.93138 | 30845 ft | 423 kts | 40° |
| 2026-05-05 16:27 | 47.62716 | 42.95805 | 30272 ft | 423 kts | 40° |
| 2026-05-05 16:27 | 47.65028 | 42.98480 | 29725 ft | 424 kts | 40° |
| 2026-05-05 16:28 | 47.67350 | 43.01169 | 29160 ft | 426 kts | 40° |
| 2026-05-05 16:28 | 47.69678 | 43.03868 | 28599 ft | 428 kts | 40° |
| 2026-05-05 16:28 | 47.72013 | 43.06579 | 28034 ft | 428 kts | 39° |
| 2026-05-05 16:28 | 47.74341 | 43.09284 | 27470 ft | 426 kts | 39° |
| 2026-05-05 16:29 | 47.76657 | 43.11978 | 26907 ft | 423 kts | 39° |
| 2026-05-05 16:29 | 47.78955 | 43.14654 | 26357 ft | 420 kts | 39° |
| 2026-05-05 16:29 | 47.81235 | 43.17318 | 25807 ft | 418 kts | 39° |
| 2026-05-05 16:29 | 47.83502 | 43.19974 | 25249 ft | 415 kts | 40° |
| 2026-05-05 16:30 | 47.85753 | 43.22614 | 24703 ft | 413 kts | 39° |
| 2026-05-05 16:30 | 47.87990 | 43.25240 | 24161 ft | 410 kts | 40° |
| 2026-05-05 16:30 | 47.90213 | 43.27853 | 23624 ft | 408 kts | 40° |
| 2026-05-05 16:30 | 47.92421 | 43.30450 | 23085 ft | 405 kts | 40° |
| 2026-05-05 16:31 | 47.94613 | 43.33032 | 22555 ft | 402 kts | 40° |
| 2026-05-05 16:31 | 47.96790 | 43.35599 | 22016 ft | 400 kts | 40° |
| 2026-05-05 16:31 | 47.98953 | 43.38153 | 21498 ft | 396 kts | 39° |
| 2026-05-05 16:31 | 48.01104 | 43.40695 | 20973 ft | 394 kts | 39° |
| 2026-05-05 16:32 | 48.03234 | 43.43214 | 20454 ft | 391 kts | 39° |
| 2026-05-05 16:32 | 48.05355 | 43.45727 | 19936 ft | 389 kts | 39° |
| 2026-05-05 16:32 | 48.07459 | 43.48222 | 19423 ft | 386 kts | 39° |
| 2026-05-05 16:32 | 48.09598 | 43.50760 | 18903 ft | 384 kts | 39° |
| 2026-05-05 16:33 | 48.11700 | 43.53259 | 18392 ft | 381 kts | 39° |
| 2026-05-05 16:33 | 48.13777 | 43.55729 | 17888 ft | 378 kts | 40° |
| 2026-05-05 16:33 | 48.15818 | 43.58160 | 17384 ft | 375 kts | 40° |
| 2026-05-05 16:33 | 48.17842 | 43.60572 | 16893 ft | 371 kts | 40° |
| 2026-05-05 16:34 | 48.19801 | 43.63022 | 16405 ft | 366 kts | 46° |
| 2026-05-05 16:34 | 48.21376 | 43.66037 | 15896 ft | 360 kts | 57° |
| 2026-05-05 16:34 | 48.22800 | 43.69121 | 15413 ft | 356 kts | 57° |
| 2026-05-05 16:34 | 48.24204 | 43.72146 | 14949 ft | 353 kts | 57° |
| 2026-05-05 16:35 | 48.25594 | 43.75144 | 14486 ft | 350 kts | 56° |
| 2026-05-05 16:35 | 48.26971 | 43.78115 | 14026 ft | 345 kts | 56° |
| 2026-05-05 16:35 | 48.28320 | 43.81028 | 13575 ft | 337 kts | 57° |
| 2026-05-05 16:35 | 48.29653 | 43.83909 | 13128 ft | 328 kts | 57° |
| 2026-05-05 16:36 | 48.30940 | 43.86695 | 12700 ft | 319 kts | 57° |
| 2026-05-05 16:36 | 48.32185 | 43.89391 | 12285 ft | 311 kts | 57° |
| 2026-05-05 16:36 | 48.33398 | 43.92019 | 11874 ft | 303 kts | 57° |
| 2026-05-05 16:36 | 48.34576 | 43.94576 | 11481 ft | 295 kts | 57° |
| 2026-05-05 16:37 | 48.35735 | 43.97092 | 11089 ft | 288 kts | 57° |
| 2026-05-05 16:37 | 48.36858 | 43.99534 | 10719 ft | 282 kts | 57° |
| 2026-05-05 16:37 | 48.37958 | 44.01927 | 10345 ft | 276 kts | 57° |
| 2026-05-05 16:37 | 48.39036 | 44.04273 | 9980 ft | 271 kts | 57° |
| 2026-05-05 16:38 | 48.40093 | 44.06577 | 9629 ft | 266 kts | 57° |
| 2026-05-05 16:38 | 48.41135 | 44.08850 | 9279 ft | 264 kts | 56° |
| 2026-05-05 16:38 | 48.42180 | 44.11132 | 8927 ft | 264 kts | 56° |
| 2026-05-05 16:38 | 48.43216 | 44.13396 | 8580 ft | 263 kts | 56° |
| 2026-05-05 16:39 | 48.44246 | 44.15649 | 8232 ft | 262 kts | 56° |
| 2026-05-05 16:39 | 48.45271 | 44.17892 | 7887 ft | 260 kts | 56° |
| 2026-05-05 16:39 | 48.46463 | 44.19902 | 7528 ft | 260 kts | 39° |
| 2026-05-05 16:39 | 48.48075 | 44.21093 | 7143 ft | 261 kts | 17° |
| 2026-05-05 16:40 | 48.49885 | 44.21234 | 6754 ft | 265 kts | 357° |
| 2026-05-05 16:40 | 48.51703 | 44.20827 | 6366 ft | 262 kts | 355° |
| 2026-05-05 16:40 | 48.53488 | 44.20413 | 6042 ft | 257 kts | 355° |
| 2026-05-05 16:40 | 48.55235 | 44.20012 | 5729 ft | 252 kts | 355° |
| 2026-05-05 16:41 | 48.56956 | 44.19617 | 5425 ft | 249 kts | 355° |
| 2026-05-05 16:41 | 48.58664 | 44.19226 | 5075 ft | 246 kts | 354° |
| 2026-05-05 16:41 | 48.60342 | 44.18841 | 4751 ft | 241 kts | 354° |
| 2026-05-05 16:41 | 48.61997 | 44.18422 | 4432 ft | 238 kts | 348° |
| 2026-05-05 16:42 | 48.63520 | 44.17476 | 4102 ft | 236 kts | 337° |
| 2026-05-05 16:42 | 48.64985 | 44.16395 | 3810 ft | 232 kts | 337° |
| 2026-05-05 16:42 | 48.66432 | 44.15339 | 3484 ft | 230 kts | 337° |
| 2026-05-05 16:42 | 48.67857 | 44.14299 | 3189 ft | 226 kts | 337° |
| 2026-05-05 16:43 | 48.69304 | 44.13494 | 2883 ft | 220 kts | 354° |
| 2026-05-05 16:43 | 48.70781 | 44.13714 | 2579 ft | 212 kts | 23° |
| 2026-05-05 16:43 | 48.71917 | 44.14978 | 2517 ft | 197 kts | 52° |
| 2026-05-05 16:43 | 48.72598 | 44.16706 | 2513 ft | 186 kts | 61° |
| 2026-05-05 16:44 | 48.73175 | 44.18402 | 2264 ft | 178 kts | 62° |
| 2026-05-05 16:44 | 48.73681 | 44.19942 | 2110 ft | 145 kts | 63° |
| 2026-05-05 16:44 | 48.74100 | 44.21243 | 1933 ft | 134 kts | 63° |
| 2026-05-05 16:44 | 48.74500 | 44.22489 | 1733 ft | 128 kts | 63° |
| 2026-05-05 16:45 | 48.74889 | 44.23705 | 1576 ft | 128 kts | 64° |
| 2026-05-05 16:45 | 48.75272 | 44.24904 | 1412 ft | 126 kts | 64° |
| 2026-05-05 16:45 | 48.75652 | 44.26099 | 1246 ft | 126 kts | 64° |
| 2026-05-05 16:45 | 48.76033 | 44.27296 | 1088 ft | 127 kts | 64° |
| 2026-05-05 16:46 | 48.76414 | 44.28493 | 919 ft | 126 kts | 65° |
| 2026-05-05 16:46 | 48.76796 | 44.29687 | 763 ft | 127 kts | 64° |
| 2026-05-05 16:46 | 48.77172 | 44.30865 | 577 ft | 124 kts | 65° |
| 2026-05-05 16:46 | 48.77555 | 44.32073 | 434 ft | 124 kts | 65° |
| 2026-05-05 16:47 | 48.77885 | 44.33125 | 425 ft | 92 kts | 64° |
| 2026-05-05 16:47 | 48.78084 | 44.33744 | 436 ft | 48 kts | 64° |
| 2026-05-05 16:47 | 48.78217 | 44.34164 | 445 ft | 41 kts | 64° |
| 2026-05-05 16:47 | 48.78337 | 44.34542 | 455 ft | 38 kts | 64° |
| 2026-05-05 16:48 | 48.78451 | 44.34899 | 462 ft | 36 kts | 64° |
| 2026-05-05 16:48 | 48.78537 | 44.35170 | 464 ft | 14 kts | 64° |
| 2026-05-05 16:48 | 48.78597 | 44.35250 | 465 ft | 11 kts | 353° |
| 2026-05-05 16:48 | 48.78686 | 44.35207 | 465 ft | 15 kts | 341° |
| 2026-05-05 16:49 | 48.78800 | 44.35152 | 466 ft | 18 kts | 341° |
| 2026-05-05 16:49 | 48.78878 | 44.35104 | 466 ft | 12 kts | 331° |
| 2026-05-05 16:49 | 48.78959 | 44.35051 | 465 ft | 5 kts | 339° |
| 2026-05-05 16:49 | 48.78974 | 44.35042 | 465 ft | 0 kts | 338° |